sensor_id;sensor_type;location;lat;lon;timestamp;P1;durP1;ratioP1;P2;durP2;ratioP2
52047;SDS011;46904;49.438;8.752;2023-01-15T00:00:05;0.90;;;0.52;;
52047;SDS011;46904;49.438;8.752;2023-01-15T00:02:33;0.88;;;0.80;;
52047;SDS011;46904;49.438;8.752;2023-01-15T00:04:58;0.45;;;0.40;;
52047;SDS011;46904;49.438;8.752;2023-01-15T00:07:24;1.50;;;0.60;;
52047;SDS011;46904;49.438;8.752;2023-01-15T00:09:49;0.82;;;0.60;;
52047;SDS011;46904;49.438;8.752;2023-01-15T00:12:15;1.30;;;0.60;;
52047;SDS011;46904;49.438;8.752;2023-01-15T00:14:41;0.52;;;0.50;;
52047;SDS011;46904;49.438;8.752;2023-01-15T00:17:06;0.45;;;0.43;;
52047;SDS011;46904;49.438;8.752;2023-01-15T00:19:32;0.75;;;0.55;;
52047;SDS011;46904;49.438;8.752;2023-01-15T00:21:57;0.50;;;0.50;;
52047;SDS011;46904;49.438;8.752;2023-01-15T00:24:23;0.60;;;0.60;;
52047;SDS011;46904;49.438;8.752;2023-01-15T00:26:48;0.82;;;0.82;;
52047;SDS011;46904;49.438;8.752;2023-01-15T00:29:14;0.90;;;0.60;;
52047;SDS011;46904;49.438;8.752;2023-01-15T00:31:40;0.50;;;0.50;;
52047;SDS011;46904;49.438;8.752;2023-01-15T00:34:06;0.60;;;0.57;;
52047;SDS011;46904;49.438;8.752;2023-01-15T00:36:31;0.75;;;0.50;;
52047;SDS011;46904;49.438;8.752;2023-01-15T00:38:57;0.50;;;0.50;;
52047;SDS011;46904;49.438;8.752;2023-01-15T00:41:22;0.70;;;0.60;;
52047;SDS011;46904;49.438;8.752;2023-01-15T00:43:48;0.57;;;0.52;;
52047;SDS011;46904;49.438;8.752;2023-01-15T00:46:14;1.08;;;0.60;;
52047;SDS011;46904;49.438;8.752;2023-01-15T00:48:40;2.08;;;0.50;;
52047;SDS011;46904;49.438;8.752;2023-01-15T00:51:08;0.90;;;0.60;;
52047;SDS011;46904;49.438;8.752;2023-01-15T00:53:34;0.60;;;0.60;;
52047;SDS011;46904;49.438;8.752;2023-01-15T00:56:00;0.57;;;0.50;;
52047;SDS011;46904;49.438;8.752;2023-01-15T00:58:25;0.50;;;0.50;;
52047;SDS011;46904;49.438;8.752;2023-01-15T01:01:00;0.40;;;0.40;;
52047;SDS011;46904;49.438;8.752;2023-01-15T01:03:25;0.70;;;0.50;;
52047;SDS011;46904;49.438;8.752;2023-01-15T01:05:51;0.50;;;0.50;;
52047;SDS011;46904;49.438;8.752;2023-01-15T01:08:20;1.30;;;0.55;;
52047;SDS011;46904;49.438;8.752;2023-01-15T01:10:46;0.50;;;0.50;;
52047;SDS011;46904;49.438;8.752;2023-01-15T01:13:12;0.50;;;0.50;;
52047;SDS011;46904;49.438;8.752;2023-01-15T01:15:37;0.63;;;0.50;;
52047;SDS011;46904;49.438;8.752;2023-01-15T01:18:03;0.57;;;0.57;;
52047;SDS011;46904;49.438;8.752;2023-01-15T01:20:29;0.50;;;0.50;;
52047;SDS011;46904;49.438;8.752;2023-01-15T01:22:55;0.47;;;0.47;;
52047;SDS011;46904;49.438;8.752;2023-01-15T01:25:21;0.47;;;0.47;;
52047;SDS011;46904;49.438;8.752;2023-01-15T01:27:46;0.45;;;0.45;;
52047;SDS011;46904;49.438;8.752;2023-01-15T01:30:12;0.52;;;0.52;;
52047;SDS011;46904;49.438;8.752;2023-01-15T01:32:38;0.40;;;0.40;;
52047;SDS011;46904;49.438;8.752;2023-01-15T01:35:04;0.50;;;0.50;;
52047;SDS011;46904;49.438;8.752;2023-01-15T01:37:29;1.95;;;0.50;;
52047;SDS011;46904;49.438;8.752;2023-01-15T01:39:55;0.47;;;0.40;;
52047;SDS011;46904;49.438;8.752;2023-01-15T01:42:21;0.40;;;0.40;;
52047;SDS011;46904;49.438;8.752;2023-01-15T01:47:13;0.60;;;0.60;;
52047;SDS011;46904;49.438;8.752;2023-01-15T01:49:39;1.08;;;0.75;;
52047;SDS011;46904;49.438;8.752;2023-01-15T01:52:08;0.50;;;0.50;;
52047;SDS011;46904;49.438;8.752;2023-01-15T01:54:35;2.30;;;0.50;;
52047;SDS011;46904;49.438;8.752;2023-01-15T01:57:02;0.82;;;0.40;;
52047;SDS011;46904;49.438;8.752;2023-01-15T01:59:27;0.95;;;0.50;;
52047;SDS011;46904;49.438;8.752;2023-01-15T02:01:53;0.50;;;0.50;;
52047;SDS011;46904;49.438;8.752;2023-01-15T02:04:20;0.38;;;0.38;;
52047;SDS011;46904;49.438;8.752;2023-01-15T02:06:49;2.05;;;0.70;;
52047;SDS011;46904;49.438;8.752;2023-01-15T02:09:15;0.52;;;0.50;;
52047;SDS011;46904;49.438;8.752;2023-01-15T02:11:41;0.40;;;0.40;;
52047;SDS011;46904;49.438;8.752;2023-01-15T02:17:04;0.40;;;0.40;;
52047;SDS011;46904;49.438;8.752;2023-01-15T02:22:06;0.63;;;0.43;;
52047;SDS011;46904;49.438;8.752;2023-01-15T02:32:57;0.45;;;0.43;;
52047;SDS011;46904;49.438;8.752;2023-01-15T02:35:05;0.50;;;0.50;;
52047;SDS011;46904;49.438;8.752;2023-01-15T02:37:33;0.60;;;0.60;;
52047;SDS011;46904;49.438;8.752;2023-01-15T02:40:01;0.77;;;0.52;;
52047;SDS011;46904;49.438;8.752;2023-01-15T02:42:29;0.40;;;0.40;;
52047;SDS011;46904;49.438;8.752;2023-01-15T02:44:56;0.95;;;0.50;;
52047;SDS011;46904;49.438;8.752;2023-01-15T02:47:25;0.73;;;0.50;;
52047;SDS011;46904;49.438;8.752;2023-01-15T02:49:52;0.85;;;0.50;;
52047;SDS011;46904;49.438;8.752;2023-01-15T02:52:26;0.40;;;0.40;;
52047;SDS011;46904;49.438;8.752;2023-01-15T02:54:59;0.95;;;0.95;;
52047;SDS011;46904;49.438;8.752;2023-01-15T02:57:27;0.43;;;0.43;;
52047;SDS011;46904;49.438;8.752;2023-01-15T02:59:55;0.47;;;0.47;;
52047;SDS011;46904;49.438;8.752;2023-01-15T03:02:22;0.50;;;0.50;;
52047;SDS011;46904;49.438;8.752;2023-01-15T03:07:32;0.50;;;0.50;;
52047;SDS011;46904;49.438;8.752;2023-01-15T03:09:59;0.40;;;0.40;;
52047;SDS011;46904;49.438;8.752;2023-01-15T03:12:27;0.40;;;0.40;;
52047;SDS011;46904;49.438;8.752;2023-01-15T03:15:07;0.40;;;0.40;;
52047;SDS011;46904;49.438;8.752;2023-01-15T03:22:35;0.50;;;0.40;;
52047;SDS011;46904;49.438;8.752;2023-01-15T03:25:03;0.30;;;0.30;;
52047;SDS011;46904;49.438;8.752;2023-01-15T03:27:30;0.40;;;0.40;;
52047;SDS011;46904;49.438;8.752;2023-01-15T03:30:06;0.40;;;0.40;;
52047;SDS011;46904;49.438;8.752;2023-01-15T03:32:32;0.40;;;0.40;;
52047;SDS011;46904;49.438;8.752;2023-01-15T03:34:58;0.40;;;0.40;;
52047;SDS011;46904;49.438;8.752;2023-01-15T03:37:24;0.30;;;0.30;;
52047;SDS011;46904;49.438;8.752;2023-01-15T03:39:50;0.30;;;0.30;;
52047;SDS011;46904;49.438;8.752;2023-01-15T03:47:32;0.20;;;0.20;;
52047;SDS011;46904;49.438;8.752;2023-01-15T03:50:07;0.30;;;0.30;;
52047;SDS011;46904;49.438;8.752;2023-01-15T03:55:12;0.30;;;0.30;;
52047;SDS011;46904;49.438;8.752;2023-01-15T04:00:12;0.25;;;0.25;;
52047;SDS011;46904;49.438;8.752;2023-01-15T04:02:38;0.57;;;0.30;;
52047;SDS011;46904;49.438;8.752;2023-01-15T04:05:05;0.20;;;0.20;;
52047;SDS011;46904;49.438;8.752;2023-01-15T04:07:31;0.30;;;0.30;;
52047;SDS011;46904;49.438;8.752;2023-01-15T04:09:56;1.30;;;0.30;;
52047;SDS011;46904;49.438;8.752;2023-01-15T04:12:22;0.25;;;0.25;;
52047;SDS011;46904;49.438;8.752;2023-01-15T04:14:47;0.30;;;0.30;;
52047;SDS011;46904;49.438;8.752;2023-01-15T04:17:13;0.35;;;0.35;;
52047;SDS011;46904;49.438;8.752;2023-01-15T04:19:38;0.22;;;0.22;;
52047;SDS011;46904;49.438;8.752;2023-01-15T04:22:04;0.30;;;0.30;;
52047;SDS011;46904;49.438;8.752;2023-01-15T04:24:29;0.30;;;0.30;;
52047;SDS011;46904;49.438;8.752;2023-01-15T04:26:55;0.30;;;0.30;;
52047;SDS011;46904;49.438;8.752;2023-01-15T04:29:20;0.30;;;0.30;;
52047;SDS011;46904;49.438;8.752;2023-01-15T04:31:46;0.30;;;0.30;;
52047;SDS011;46904;49.438;8.752;2023-01-15T04:34:11;2.72;;;0.40;;
52047;SDS011;46904;49.438;8.752;2023-01-15T04:36:37;0.30;;;0.30;;
52047;SDS011;46904;49.438;8.752;2023-01-15T04:39:03;0.30;;;0.30;;
52047;SDS011;46904;49.438;8.752;2023-01-15T04:41:29;0.30;;;0.30;;
52047;SDS011;46904;49.438;8.752;2023-01-15T04:43:55;0.73;;;0.30;;
52047;SDS011;46904;49.438;8.752;2023-01-15T04:46:21;0.40;;;0.40;;
52047;SDS011;46904;49.438;8.752;2023-01-15T04:48:47;0.47;;;0.38;;
52047;SDS011;46904;49.438;8.752;2023-01-15T04:51:13;0.40;;;0.40;;
52047;SDS011;46904;49.438;8.752;2023-01-15T04:53:38;0.30;;;0.30;;
52047;SDS011;46904;49.438;8.752;2023-01-15T04:56:04;0.93;;;0.30;;
52047;SDS011;46904;49.438;8.752;2023-01-15T04:58:30;0.20;;;0.20;;
52047;SDS011;46904;49.438;8.752;2023-01-15T05:00:56;0.38;;;0.38;;
52047;SDS011;46904;49.438;8.752;2023-01-15T05:03:21;0.45;;;0.32;;
52047;SDS011;46904;49.438;8.752;2023-01-15T05:05:47;0.40;;;0.40;;
52047;SDS011;46904;49.438;8.752;2023-01-15T05:08:12;0.40;;;0.40;;
52047;SDS011;46904;49.438;8.752;2023-01-15T05:10:38;1.92;;;0.63;;
52047;SDS011;46904;49.438;8.752;2023-01-15T05:13:04;0.73;;;0.73;;
52047;SDS011;46904;49.438;8.752;2023-01-15T05:15:29;0.40;;;0.40;;
52047;SDS011;46904;49.438;8.752;2023-01-15T05:17:55;0.30;;;0.30;;
52047;SDS011;46904;49.438;8.752;2023-01-15T05:20:20;1.27;;;0.30;;
52047;SDS011;46904;49.438;8.752;2023-01-15T05:22:46;0.32;;;0.32;;
52047;SDS011;46904;49.438;8.752;2023-01-15T05:25:11;0.40;;;0.40;;
52047;SDS011;46904;49.438;8.752;2023-01-15T05:27:37;0.32;;;0.32;;
52047;SDS011;46904;49.438;8.752;2023-01-15T05:30:03;0.45;;;0.45;;
52047;SDS011;46904;49.438;8.752;2023-01-15T05:32:29;0.40;;;0.40;;
52047;SDS011;46904;49.438;8.752;2023-01-15T05:34:54;0.50;;;0.50;;
52047;SDS011;46904;49.438;8.752;2023-01-15T05:37:20;0.75;;;0.60;;
52047;SDS011;46904;49.438;8.752;2023-01-15T05:39:45;0.50;;;0.50;;
52047;SDS011;46904;49.438;8.752;2023-01-15T05:42:11;1.23;;;0.70;;
52047;SDS011;46904;49.438;8.752;2023-01-15T05:44:36;0.70;;;0.70;;
52047;SDS011;46904;49.438;8.752;2023-01-15T05:47:02;0.73;;;0.70;;
52047;SDS011;46904;49.438;8.752;2023-01-15T05:49:28;1.02;;;0.70;;
52047;SDS011;46904;49.438;8.752;2023-01-15T05:51:53;0.77;;;0.77;;
52047;SDS011;46904;49.438;8.752;2023-01-15T05:54:20;0.70;;;0.70;;
52047;SDS011;46904;49.438;8.752;2023-01-15T05:56:46;1.15;;;0.63;;
52047;SDS011;46904;49.438;8.752;2023-01-15T05:59:12;0.70;;;0.70;;
52047;SDS011;46904;49.438;8.752;2023-01-15T06:01:38;0.90;;;0.68;;
52047;SDS011;46904;49.438;8.752;2023-01-15T06:04:04;0.65;;;0.65;;
52047;SDS011;46904;49.438;8.752;2023-01-15T06:06:30;0.60;;;0.60;;
52047;SDS011;46904;49.438;8.752;2023-01-15T06:08:56;0.98;;;0.60;;
52047;SDS011;46904;49.438;8.752;2023-01-15T06:11:22;0.60;;;0.60;;
52047;SDS011;46904;49.438;8.752;2023-01-15T06:13:47;1.70;;;0.50;;
52047;SDS011;46904;49.438;8.752;2023-01-15T06:16:13;0.57;;;0.57;;
52047;SDS011;46904;49.438;8.752;2023-01-15T06:18:38;0.75;;;0.75;;
52047;SDS011;46904;49.438;8.752;2023-01-15T06:21:05;2.10;;;0.85;;
52047;SDS011;46904;49.438;8.752;2023-01-15T06:23:31;0.43;;;0.43;;
52047;SDS011;46904;49.438;8.752;2023-01-15T06:25:59;1.42;;;0.50;;
52047;SDS011;46904;49.438;8.752;2023-01-15T06:28:25;0.55;;;0.55;;
52047;SDS011;46904;49.438;8.752;2023-01-15T06:30:51;0.50;;;0.50;;
52047;SDS011;46904;49.438;8.752;2023-01-15T06:33:16;0.43;;;0.43;;
52047;SDS011;46904;49.438;8.752;2023-01-15T06:35:42;0.47;;;0.47;;
52047;SDS011;46904;49.438;8.752;2023-01-15T06:38:07;0.50;;;0.50;;
52047;SDS011;46904;49.438;8.752;2023-01-15T06:40:33;0.60;;;0.60;;
52047;SDS011;46904;49.438;8.752;2023-01-15T06:42:58;0.50;;;0.50;;
52047;SDS011;46904;49.438;8.752;2023-01-15T06:45:24;0.73;;;0.73;;
52047;SDS011;46904;49.438;8.752;2023-01-15T06:47:49;1.00;;;0.70;;
52047;SDS011;46904;49.438;8.752;2023-01-15T06:50:15;1.10;;;0.90;;
52047;SDS011;46904;49.438;8.752;2023-01-15T06:52:41;0.60;;;0.60;;
52047;SDS011;46904;49.438;8.752;2023-01-15T06:55:06;0.70;;;0.70;;
52047;SDS011;46904;49.438;8.752;2023-01-15T06:57:32;0.90;;;0.80;;
52047;SDS011;46904;49.438;8.752;2023-01-15T06:59:57;0.80;;;0.80;;
52047;SDS011;46904;49.438;8.752;2023-01-15T07:02:23;0.90;;;0.90;;
52047;SDS011;46904;49.438;8.752;2023-01-15T07:04:49;0.70;;;0.70;;
52047;SDS011;46904;49.438;8.752;2023-01-15T07:07:15;2.15;;;0.90;;
52047;SDS011;46904;49.438;8.752;2023-01-15T07:09:41;0.85;;;0.75;;
52047;SDS011;46904;49.438;8.752;2023-01-15T07:12:07;0.70;;;0.70;;
52047;SDS011;46904;49.438;8.752;2023-01-15T07:14:32;0.68;;;0.68;;
52047;SDS011;46904;49.438;8.752;2023-01-15T07:16:58;0.80;;;0.77;;
52047;SDS011;46904;49.438;8.752;2023-01-15T07:19:23;0.65;;;0.65;;
52047;SDS011;46904;49.438;8.752;2023-01-15T07:21:49;0.60;;;0.60;;
52047;SDS011;46904;49.438;8.752;2023-01-15T07:24:15;0.80;;;0.80;;
52047;SDS011;46904;49.438;8.752;2023-01-15T07:26:41;0.82;;;0.50;;
52047;SDS011;46904;49.438;8.752;2023-01-15T07:29:07;0.60;;;0.60;;
52047;SDS011;46904;49.438;8.752;2023-01-15T07:31:32;0.50;;;0.50;;
52047;SDS011;46904;49.438;8.752;2023-01-15T07:33:58;0.70;;;0.70;;
52047;SDS011;46904;49.438;8.752;2023-01-15T07:36:24;0.95;;;0.95;;
52047;SDS011;46904;49.438;8.752;2023-01-15T07:38:49;0.60;;;0.60;;
52047;SDS011;46904;49.438;8.752;2023-01-15T07:41:15;1.08;;;0.75;;
52047;SDS011;46904;49.438;8.752;2023-01-15T07:43:40;0.70;;;0.70;;
52047;SDS011;46904;49.438;8.752;2023-01-15T07:46:08;3.97;;;0.70;;
52047;SDS011;46904;49.438;8.752;2023-01-15T07:48:34;0.80;;;0.80;;
52047;SDS011;46904;49.438;8.752;2023-01-15T07:50:59;0.80;;;0.80;;
52047;SDS011;46904;49.438;8.752;2023-01-15T07:53:25;0.50;;;0.50;;
52047;SDS011;46904;49.438;8.752;2023-01-15T07:55:51;0.50;;;0.50;;
52047;SDS011;46904;49.438;8.752;2023-01-15T07:58:16;0.60;;;0.60;;
52047;SDS011;46904;49.438;8.752;2023-01-15T08:00:42;0.60;;;0.50;;
52047;SDS011;46904;49.438;8.752;2023-01-15T08:03:07;0.47;;;0.40;;
52047;SDS011;46904;49.438;8.752;2023-01-15T08:05:33;0.55;;;0.55;;
52047;SDS011;46904;49.438;8.752;2023-01-15T08:07:58;0.55;;;0.30;;
52047;SDS011;46904;49.438;8.752;2023-01-15T08:10:24;0.80;;;0.70;;
52047;SDS011;46904;49.438;8.752;2023-01-15T08:12:49;0.35;;;0.35;;
52047;SDS011;46904;49.438;8.752;2023-01-15T08:15:15;0.50;;;0.50;;
52047;SDS011;46904;49.438;8.752;2023-01-15T08:17:41;0.45;;;0.43;;
52047;SDS011;46904;49.438;8.752;2023-01-15T08:20:11;0.50;;;0.50;;
52047;SDS011;46904;49.438;8.752;2023-01-15T08:22:37;0.40;;;0.40;;
52047;SDS011;46904;49.438;8.752;2023-01-15T08:25:03;0.40;;;0.40;;
52047;SDS011;46904;49.438;8.752;2023-01-15T08:27:29;0.57;;;0.40;;
52047;SDS011;46904;49.438;8.752;2023-01-15T08:29:55;0.50;;;0.50;;
52047;SDS011;46904;49.438;8.752;2023-01-15T08:32:20;0.63;;;0.50;;
52047;SDS011;46904;49.438;8.752;2023-01-15T08:34:46;0.60;;;0.60;;
52047;SDS011;46904;49.438;8.752;2023-01-15T08:37:11;0.60;;;0.60;;
52047;SDS011;46904;49.438;8.752;2023-01-15T08:39:37;0.40;;;0.40;;
52047;SDS011;46904;49.438;8.752;2023-01-15T08:42:02;0.75;;;0.43;;
52047;SDS011;46904;49.438;8.752;2023-01-15T08:44:28;0.75;;;0.55;;
52047;SDS011;46904;49.438;8.752;2023-01-15T08:46:53;0.55;;;0.55;;
52047;SDS011;46904;49.438;8.752;2023-01-15T08:49:19;0.50;;;0.50;;
52047;SDS011;46904;49.438;8.752;2023-01-15T08:51:45;0.40;;;0.40;;
52047;SDS011;46904;49.438;8.752;2023-01-15T08:54:11;1.05;;;0.95;;
52047;SDS011;46904;49.438;8.752;2023-01-15T08:56:37;0.70;;;0.70;;
52047;SDS011;46904;49.438;8.752;2023-01-15T08:59:03;0.50;;;0.50;;
52047;SDS011;46904;49.438;8.752;2023-01-15T09:01:29;0.60;;;0.60;;
52047;SDS011;46904;49.438;8.752;2023-01-15T09:03:54;0.52;;;0.52;;
52047;SDS011;46904;49.438;8.752;2023-01-15T09:06:20;1.00;;;0.65;;
52047;SDS011;46904;49.438;8.752;2023-01-15T09:08:45;0.47;;;0.47;;
52047;SDS011;46904;49.438;8.752;2023-01-15T09:11:11;0.40;;;0.40;;
52047;SDS011;46904;49.438;8.752;2023-01-15T09:13:36;0.40;;;0.40;;
52047;SDS011;46904;49.438;8.752;2023-01-15T09:16:02;0.60;;;0.60;;
52047;SDS011;46904;49.438;8.752;2023-01-15T09:18:28;0.40;;;0.40;;
52047;SDS011;46904;49.438;8.752;2023-01-15T09:20:54;0.50;;;0.50;;
52047;SDS011;46904;49.438;8.752;2023-01-15T09:23:20;0.50;;;0.50;;
52047;SDS011;46904;49.438;8.752;2023-01-15T09:25:52;0.40;;;0.40;;
52047;SDS011;46904;49.438;8.752;2023-01-15T09:28:18;0.40;;;0.40;;
52047;SDS011;46904;49.438;8.752;2023-01-15T09:30:44;0.40;;;0.40;;
52047;SDS011;46904;49.438;8.752;2023-01-15T09:33:09;0.40;;;0.40;;
52047;SDS011;46904;49.438;8.752;2023-01-15T09:35:35;0.40;;;0.40;;
52047;SDS011;46904;49.438;8.752;2023-01-15T09:38:01;0.43;;;0.43;;
52047;SDS011;46904;49.438;8.752;2023-01-15T09:43:05;0.43;;;0.40;;
52047;SDS011;46904;49.438;8.752;2023-01-15T09:45:39;0.60;;;0.57;;
52047;SDS011;46904;49.438;8.752;2023-01-15T09:50:37;0.50;;;0.50;;
52047;SDS011;46904;49.438;8.752;2023-01-15T09:53:12;0.70;;;0.70;;
52047;SDS011;46904;49.438;8.752;2023-01-15T09:55:44;0.50;;;0.40;;
52047;SDS011;46904;49.438;8.752;2023-01-15T09:58:10;1.40;;;0.43;;
52047;SDS011;46904;49.438;8.752;2023-01-15T10:00:38;0.40;;;0.40;;
52047;SDS011;46904;49.438;8.752;2023-01-15T10:03:19;1.25;;;0.60;;
52047;SDS011;46904;49.438;8.752;2023-01-15T10:05:47;0.40;;;0.40;;
52047;SDS011;46904;49.438;8.752;2023-01-15T10:08:16;1.20;;;0.60;;
52047;SDS011;46904;49.438;8.752;2023-01-15T10:10:45;0.90;;;0.80;;
52047;SDS011;46904;49.438;8.752;2023-01-15T10:13:34;1.08;;;0.88;;
52047;SDS011;46904;49.438;8.752;2023-01-15T10:15:57;0.60;;;0.52;;
52047;SDS011;46904;49.438;8.752;2023-01-15T10:18:23;1.52;;;0.65;;
52047;SDS011;46904;49.438;8.752;2023-01-15T10:26:16;0.80;;;0.60;;
52047;SDS011;46904;49.438;8.752;2023-01-15T10:31:19;0.60;;;0.50;;
52047;SDS011;46904;49.438;8.752;2023-01-15T10:34:09;0.85;;;0.85;;
52047;SDS011;46904;49.438;8.752;2023-01-15T10:36:43;0.63;;;0.63;;
52047;SDS011;46904;49.438;8.752;2023-01-15T10:44:37;0.75;;;0.70;;
52047;SDS011;46904;49.438;8.752;2023-01-15T10:47:06;1.27;;;1.17;;
52047;SDS011;46904;49.438;8.752;2023-01-15T10:49:35;0.60;;;0.43;;
52047;SDS011;46904;49.438;8.752;2023-01-15T10:52:12;0.68;;;0.60;;
52047;SDS011;46904;49.438;8.752;2023-01-15T10:54:45;0.63;;;0.45;;
52047;SDS011;46904;49.438;8.752;2023-01-15T10:57:28;0.47;;;0.47;;
52047;SDS011;46904;49.438;8.752;2023-01-15T11:00:01;0.70;;;0.70;;
52047;SDS011;46904;49.438;8.752;2023-01-15T11:02:29;2.90;;;1.40;;
52047;SDS011;46904;49.438;8.752;2023-01-15T11:04:55;1.30;;;0.60;;
52047;SDS011;46904;49.438;8.752;2023-01-15T11:07:22;4.10;;;1.00;;
52047;SDS011;46904;49.438;8.752;2023-01-15T11:09:50;0.50;;;0.50;;
52047;SDS011;46904;49.438;8.752;2023-01-15T11:12:18;0.40;;;0.35;;
52047;SDS011;46904;49.438;8.752;2023-01-15T11:14:44;0.60;;;0.60;;
52047;SDS011;46904;49.438;8.752;2023-01-15T11:17:11;0.93;;;0.70;;
52047;SDS011;46904;49.438;8.752;2023-01-15T11:19:38;1.33;;;0.90;;
52047;SDS011;46904;49.438;8.752;2023-01-15T11:22:20;1.35;;;1.08;;
52047;SDS011;46904;49.438;8.752;2023-01-15T11:24:52;1.75;;;0.98;;
52047;SDS011;46904;49.438;8.752;2023-01-15T11:29:44;0.70;;;0.70;;
52047;SDS011;46904;49.438;8.752;2023-01-15T11:32:20;2.47;;;1.58;;
52047;SDS011;46904;49.438;8.752;2023-01-15T11:34:51;2.88;;;1.80;;
52047;SDS011;46904;49.438;8.752;2023-01-15T11:37:17;2.03;;;1.60;;
52047;SDS011;46904;49.438;8.752;2023-01-15T11:39:50;1.02;;;0.90;;
52047;SDS011;46904;49.438;8.752;2023-01-15T11:42:16;0.98;;;0.80;;
52047;SDS011;46904;49.438;8.752;2023-01-15T11:44:49;0.90;;;0.90;;
52047;SDS011;46904;49.438;8.752;2023-01-15T11:47:16;1.20;;;1.00;;
52047;SDS011;46904;49.438;8.752;2023-01-15T11:49:48;0.98;;;0.88;;
52047;SDS011;46904;49.438;8.752;2023-01-15T11:52:21;1.15;;;1.05;;
52047;SDS011;46904;49.438;8.752;2023-01-15T11:54:48;1.00;;;0.90;;
52047;SDS011;46904;49.438;8.752;2023-01-15T11:57:25;0.85;;;0.80;;
52047;SDS011;46904;49.438;8.752;2023-01-15T11:59:51;0.80;;;0.80;;
52047;SDS011;46904;49.438;8.752;2023-01-15T12:02:39;2.35;;;0.80;;
52047;SDS011;46904;49.438;8.752;2023-01-15T12:05:03;0.85;;;0.77;;
52047;SDS011;46904;49.438;8.752;2023-01-15T12:07:29;1.30;;;0.98;;
52047;SDS011;46904;49.438;8.752;2023-01-15T12:12:58;0.90;;;0.90;;
52047;SDS011;46904;49.438;8.752;2023-01-15T12:15:30;0.80;;;0.75;;
52047;SDS011;46904;49.438;8.752;2023-01-15T12:18:12;1.40;;;0.70;;
52047;SDS011;46904;49.438;8.752;2023-01-15T12:25:48;0.55;;;0.55;;
52047;SDS011;46904;49.438;8.752;2023-01-15T12:28:22;0.60;;;0.60;;
52047;SDS011;46904;49.438;8.752;2023-01-15T12:31:00;1.67;;;0.70;;
52047;SDS011;46904;49.438;8.752;2023-01-15T12:36:01;1.42;;;1.13;;
52047;SDS011;46904;49.438;8.752;2023-01-15T12:50:50;0.70;;;0.70;;
52047;SDS011;46904;49.438;8.752;2023-01-15T12:53:20;1.17;;;0.68;;
52047;SDS011;46904;49.438;8.752;2023-01-15T12:55:59;1.17;;;0.50;;
52047;SDS011;46904;49.438;8.752;2023-01-15T12:58:31;1.13;;;0.60;;
52047;SDS011;46904;49.438;8.752;2023-01-15T13:01:02;4.35;;;0.90;;
52047;SDS011;46904;49.438;8.752;2023-01-15T13:06:17;1.42;;;0.95;;
52047;SDS011;46904;49.438;8.752;2023-01-15T13:11:27;0.80;;;0.80;;
52047;SDS011;46904;49.438;8.752;2023-01-15T13:13:53;0.82;;;0.70;;
52047;SDS011;46904;49.438;8.752;2023-01-15T13:16:20;2.22;;;1.17;;
52047;SDS011;46904;49.438;8.752;2023-01-15T13:21:15;0.80;;;0.80;;
52047;SDS011;46904;49.438;8.752;2023-01-15T13:34:16;0.85;;;0.77;;
52047;SDS011;46904;49.438;8.752;2023-01-15T13:36:44;1.75;;;1.42;;
52047;SDS011;46904;49.438;8.752;2023-01-15T13:39:19;1.08;;;0.90;;
52047;SDS011;46904;49.438;8.752;2023-01-15T13:41:47;0.98;;;0.63;;
52047;SDS011;46904;49.438;8.752;2023-01-15T13:44:23;1.80;;;0.70;;
52047;SDS011;46904;49.438;8.752;2023-01-15T13:47:04;1.23;;;0.60;;
52047;SDS011;46904;49.438;8.752;2023-01-15T13:49:32;2.70;;;0.73;;
52047;SDS011;46904;49.438;8.752;2023-01-15T13:51:59;1.85;;;0.60;;
52047;SDS011;46904;49.438;8.752;2023-01-15T13:54:34;1.35;;;0.77;;
52047;SDS011;46904;49.438;8.752;2023-01-15T13:57:07;2.03;;;1.25;;
52047;SDS011;46904;49.438;8.752;2023-01-15T14:02:11;1.08;;;0.90;;
52047;SDS011;46904;49.438;8.752;2023-01-15T14:07:03;0.98;;;0.70;;
52047;SDS011;46904;49.438;8.752;2023-01-15T14:09:41;2.65;;;0.75;;
52047;SDS011;46904;49.438;8.752;2023-01-15T14:20:09;1.23;;;0.90;;
52047;SDS011;46904;49.438;8.752;2023-01-15T14:35:47;3.10;;;1.05;;
52047;SDS011;46904;49.438;8.752;2023-01-15T14:38:23;1.67;;;0.93;;
52047;SDS011;46904;49.438;8.752;2023-01-15T14:40:58;2.08;;;1.10;;
52047;SDS011;46904;49.438;8.752;2023-01-15T14:43:26;2.97;;;1.00;;
52047;SDS011;46904;49.438;8.752;2023-01-15T14:45:52;0.90;;;0.80;;
52047;SDS011;46904;49.438;8.752;2023-01-15T14:50:44;1.38;;;0.90;;
52047;SDS011;46904;49.438;8.752;2023-01-15T14:55:41;1.52;;;0.88;;
52047;SDS011;46904;49.438;8.752;2023-01-15T15:00:52;1.75;;;0.93;;
52047;SDS011;46904;49.438;8.752;2023-01-15T15:03:19;1.45;;;1.00;;
52047;SDS011;46904;49.438;8.752;2023-01-15T15:05:46;1.63;;;0.80;;
52047;SDS011;46904;49.438;8.752;2023-01-15T15:08:15;1.60;;;1.00;;
52047;SDS011;46904;49.438;8.752;2023-01-15T15:13:18;1.27;;;0.90;;
52047;SDS011;46904;49.438;8.752;2023-01-15T15:23:42;1.38;;;0.80;;
52047;SDS011;46904;49.438;8.752;2023-01-15T15:26:19;2.08;;;0.70;;
52047;SDS011;46904;49.438;8.752;2023-01-15T15:28:55;2.03;;;0.75;;
52047;SDS011;46904;49.438;8.752;2023-01-15T15:31:21;1.85;;;0.80;;
52047;SDS011;46904;49.438;8.752;2023-01-15T15:33:48;0.77;;;0.70;;
52047;SDS011;46904;49.438;8.752;2023-01-15T15:36:13;1.67;;;0.80;;
52047;SDS011;46904;49.438;8.752;2023-01-15T15:38:39;1.52;;;0.75;;
52047;SDS011;46904;49.438;8.752;2023-01-15T15:41:05;2.40;;;1.08;;
52047;SDS011;46904;49.438;8.752;2023-01-15T15:43:40;1.65;;;0.70;;
52047;SDS011;46904;49.438;8.752;2023-01-15T15:46:20;3.40;;;0.88;;
52047;SDS011;46904;49.438;8.752;2023-01-15T15:48:48;1.17;;;0.90;;
52047;SDS011;46904;49.438;8.752;2023-01-15T15:51:26;2.60;;;0.98;;
52047;SDS011;46904;49.438;8.752;2023-01-15T15:54:05;1.50;;;0.90;;
52047;SDS011;46904;49.438;8.752;2023-01-15T15:56:35;2.28;;;0.70;;
52047;SDS011;46904;49.438;8.752;2023-01-15T15:59:04;1.52;;;0.90;;
52047;SDS011;46904;49.438;8.752;2023-01-15T16:01:35;1.52;;;0.80;;
52047;SDS011;46904;49.438;8.752;2023-01-15T16:04:01;2.80;;;1.10;;
52047;SDS011;46904;49.438;8.752;2023-01-15T16:06:27;1.35;;;0.95;;
52047;SDS011;46904;49.438;8.752;2023-01-15T16:08:54;2.35;;;0.77;;
52047;SDS011;46904;49.438;8.752;2023-01-15T16:11:26;2.60;;;0.70;;
52047;SDS011;46904;49.438;8.752;2023-01-15T16:13:53;2.83;;;1.50;;
52047;SDS011;46904;49.438;8.752;2023-01-15T16:16:26;3.45;;;1.08;;
52047;SDS011;46904;49.438;8.752;2023-01-15T16:18:54;1.25;;;0.90;;
52047;SDS011;46904;49.438;8.752;2023-01-15T16:23:58;1.50;;;0.90;;
52047;SDS011;46904;49.438;8.752;2023-01-15T16:26:43;1.77;;;0.85;;
52047;SDS011;46904;49.438;8.752;2023-01-15T16:31:39;2.80;;;1.02;;
52047;SDS011;46904;49.438;8.752;2023-01-15T16:34:05;2.33;;;1.02;;
52047;SDS011;46904;49.438;8.752;2023-01-15T16:36:38;1.67;;;0.93;;
52047;SDS011;46904;49.438;8.752;2023-01-15T16:39:05;1.42;;;0.80;;
52047;SDS011;46904;49.438;8.752;2023-01-15T16:41:36;2.10;;;1.17;;
52047;SDS011;46904;49.438;8.752;2023-01-15T16:44:03;1.27;;;1.00;;
52047;SDS011;46904;49.438;8.752;2023-01-15T16:46:30;1.17;;;1.00;;
52047;SDS011;46904;49.438;8.752;2023-01-15T16:51:52;1.15;;;0.85;;
52047;SDS011;46904;49.438;8.752;2023-01-15T16:57:03;1.60;;;0.90;;
52047;SDS011;46904;49.438;8.752;2023-01-15T17:06:54;5.15;;;0.93;;
52047;SDS011;46904;49.438;8.752;2023-01-15T17:09:20;2.42;;;1.00;;
52047;SDS011;46904;49.438;8.752;2023-01-15T17:12:00;1.00;;;0.88;;
52047;SDS011;46904;49.438;8.752;2023-01-15T17:14:29;3.45;;;1.00;;
52047;SDS011;46904;49.438;8.752;2023-01-15T17:19:42;1.75;;;1.10;;
52047;SDS011;46904;49.438;8.752;2023-01-15T17:22:15;1.60;;;1.10;;
52047;SDS011;46904;49.438;8.752;2023-01-15T17:24:48;1.95;;;1.02;;
52047;SDS011;46904;49.438;8.752;2023-01-15T17:27:17;2.17;;;1.23;;
52047;SDS011;46904;49.438;8.752;2023-01-15T17:29:42;2.25;;;1.00;;
52047;SDS011;46904;49.438;8.752;2023-01-15T17:35:39;2.00;;;0.98;;